Main page
METAR-TAF:

METAR-TAF

Airports :

Berlevåg Airport

Berlevåg, Norway

latitude: 70-52N, longitude: 029-02E, elevation: 1 m

Current weather observation

The report was made 16 minutes ago, at 18:20 UTC
Wind 8 kt from the South
Temperature 24°C
Humidity 41%
Pressure 1012 hPa
Visibility 10 km or more
no clouds below 1500 m and no cumulonimbus

METAR: ENBV 231820Z 18008KT CAVOK 24/10 Q1012

Time: 20:36 (18:36 UTC)

Forecast

The report was made 7 hours and 36 minutes ago, at 11:00 UTC
Forecast valid from 23 at 12 UTC to 23 at 21 UTC
Wind 5 kt from variable directions
Visibility 10 km or more
no clouds below 1500 m and no cumulonimbus

TAF: ENBV 231100Z 2312/2321 VRB05KT CAVOK

Weather observations and forecasts of more than 4000 airports (METAR and TAF reports).

The available stations are represented by yellow and red dots on the map.

Hover mouse over dot to see the name of the station.

Then click to see weather observations and forecasts.

To change the map : click on the green buttons with a black cross to zoom in, on the green button with a dash to zoom out, or on the green arrows for adjacent maps.


METAR-TAF: